sensor_id;sensor_type;location;lat;lon;timestamp;P1;durP1;ratioP1;P2;durP2;ratioP2
42666;SDS011;28280;49.646;14.130;2023-08-30T00:03:22;1.50;;;1.10;;
42666;SDS011;28280;49.646;14.130;2023-08-30T00:13:43;1.35;;;1.00;;
42666;SDS011;28280;49.646;14.130;2023-08-30T00:24:04;3.30;;;1.00;;
42666;SDS011;28280;49.646;14.130;2023-08-30T00:34:26;2.25;;;0.85;;
42666;SDS011;28280;49.646;14.130;2023-08-30T00:44:49;1.10;;;0.90;;
42666;SDS011;28280;49.646;14.130;2023-08-30T00:55:10;2.05;;;0.90;;
42666;SDS011;28280;49.646;14.130;2023-08-30T01:05:31;1.38;;;0.90;;
42666;SDS011;28280;49.646;14.130;2023-08-30T01:15:52;1.35;;;1.10;;
42666;SDS011;28280;49.646;14.130;2023-08-30T01:26:26;1.02;;;0.75;;
42666;SDS011;28280;49.646;14.130;2023-08-30T01:36:56;1.08;;;0.98;;
42666;SDS011;28280;49.646;14.130;2023-08-30T01:47:20;1.20;;;0.90;;
42666;SDS011;28280;49.646;14.130;2023-08-30T01:57:42;0.80;;;0.80;;
42666;SDS011;28280;49.646;14.130;2023-08-30T02:08:05;0.90;;;0.80;;
42666;SDS011;28280;49.646;14.130;2023-08-30T02:18:34;1.50;;;1.00;;
42666;SDS011;28280;49.646;14.130;2023-08-30T02:28:56;1.13;;;0.90;;
42666;SDS011;28280;49.646;14.130;2023-08-30T02:39:19;1.98;;;1.00;;
42666;SDS011;28280;49.646;14.130;2023-08-30T02:49:40;1.17;;;0.93;;
42666;SDS011;28280;49.646;14.130;2023-08-30T03:00:02;1.27;;;0.90;;
42666;SDS011;28280;49.646;14.130;2023-08-30T03:20:48;1.65;;;1.10;;
42666;SDS011;28280;49.646;14.130;2023-08-30T03:41:40;1.20;;;1.02;;
42666;SDS011;28280;49.646;14.130;2023-08-30T03:52:02;1.40;;;1.02;;
42666;SDS011;28280;49.646;14.130;2023-08-30T04:02:23;1.50;;;1.10;;
42666;SDS011;28280;49.646;14.130;2023-08-30T04:12:45;1.13;;;0.98;;
42666;SDS011;28280;49.646;14.130;2023-08-30T04:23:06;2.05;;;0.93;;
42666;SDS011;28280;49.646;14.130;2023-08-30T04:33:28;1.73;;;1.00;;
42666;SDS011;28280;49.646;14.130;2023-08-30T04:43:49;1.45;;;0.98;;
42666;SDS011;28280;49.646;14.130;2023-08-30T04:54:10;1.40;;;1.10;;
42666;SDS011;28280;49.646;14.130;2023-08-30T05:04:32;0.93;;;0.77;;
42666;SDS011;28280;49.646;14.130;2023-08-30T05:14:54;1.00;;;0.90;;
42666;SDS011;28280;49.646;14.130;2023-08-30T05:25:17;1.40;;;1.00;;
42666;SDS011;28280;49.646;14.130;2023-08-30T05:35:39;1.50;;;1.20;;
42666;SDS011;28280;49.646;14.130;2023-08-30T05:46:27;1.55;;;1.27;;
42666;SDS011;28280;49.646;14.130;2023-08-30T05:56:48;1.63;;;1.20;;
42666;SDS011;28280;49.646;14.130;2023-08-30T06:07:10;3.47;;;1.20;;
42666;SDS011;28280;49.646;14.130;2023-08-30T06:17:31;1.60;;;1.13;;
42666;SDS011;28280;49.646;14.130;2023-08-30T06:27:59;1.67;;;1.17;;
42666;SDS011;28280;49.646;14.130;2023-08-30T06:38:22;1.92;;;1.40;;
42666;SDS011;28280;49.646;14.130;2023-08-30T06:48:43;1.60;;;1.30;;
42666;SDS011;28280;49.646;14.130;2023-08-30T06:59:05;2.67;;;1.40;;
42666;SDS011;28280;49.646;14.130;2023-08-30T07:09:26;1.73;;;1.17;;
42666;SDS011;28280;49.646;14.130;2023-08-30T07:19:52;1.73;;;1.40;;
42666;SDS011;28280;49.646;14.130;2023-08-30T07:30:13;2.15;;;1.30;;
42666;SDS011;28280;49.646;14.130;2023-08-30T07:40:35;2.42;;;1.30;;
42666;SDS011;28280;49.646;14.130;2023-08-30T07:50:56;2.00;;;1.42;;
42666;SDS011;28280;49.646;14.130;2023-08-30T08:01:18;1.80;;;1.40;;
42666;SDS011;28280;49.646;14.130;2023-08-30T08:11:39;2.10;;;1.50;;
42666;SDS011;28280;49.646;14.130;2023-08-30T08:22:04;1.70;;;1.60;;
42666;SDS011;28280;49.646;14.130;2023-08-30T08:32:25;2.33;;;1.70;;
42666;SDS011;28280;49.646;14.130;2023-08-30T08:42:47;1.80;;;1.33;;
42666;SDS011;28280;49.646;14.130;2023-08-30T08:53:11;1.90;;;1.60;;
42666;SDS011;28280;49.646;14.130;2023-08-30T09:03:34;2.50;;;1.65;;
42666;SDS011;28280;49.646;14.130;2023-08-30T09:13:56;2.30;;;1.67;;
42666;SDS011;28280;49.646;14.130;2023-08-30T09:24:17;1.98;;;1.58;;
42666;SDS011;28280;49.646;14.130;2023-08-30T09:34:45;2.30;;;1.60;;
42666;SDS011;28280;49.646;14.130;2023-08-30T09:45:08;1.70;;;1.55;;
42666;SDS011;28280;49.646;14.130;2023-08-30T09:55:43;1.77;;;1.60;;
42666;SDS011;28280;49.646;14.130;2023-08-30T10:06:05;2.70;;;1.90;;
42666;SDS011;28280;49.646;14.130;2023-08-30T10:16:27;2.28;;;1.65;;
42666;SDS011;28280;49.646;14.130;2023-08-30T10:26:53;2.05;;;1.58;;
42666;SDS011;28280;49.646;14.130;2023-08-30T10:37:16;2.35;;;1.90;;
42666;SDS011;28280;49.646;14.130;2023-08-30T10:47:38;2.45;;;1.90;;
42666;SDS011;28280;49.646;14.130;2023-08-30T10:58:01;2.13;;;1.77;;
42666;SDS011;28280;49.646;14.130;2023-08-30T11:08:24;2.28;;;1.80;;
42666;SDS011;28280;49.646;14.130;2023-08-30T11:18:48;2.35;;;1.85;;
42666;SDS011;28280;49.646;14.130;2023-08-30T11:29:10;2.10;;;1.83;;
42666;SDS011;28280;49.646;14.130;2023-08-30T11:39:31;1.77;;;1.58;;
42666;SDS011;28280;49.646;14.130;2023-08-30T11:49:53;2.38;;;1.90;;
42666;SDS011;28280;49.646;14.130;2023-08-30T12:00:18;2.45;;;1.90;;
42666;SDS011;28280;49.646;14.130;2023-08-30T12:10:40;2.20;;;2.00;;
42666;SDS011;28280;49.646;14.130;2023-08-30T12:21:02;2.67;;;1.50;;
42666;SDS011;28280;49.646;14.130;2023-08-30T12:31:26;2.13;;;1.70;;
42666;SDS011;28280;49.646;14.130;2023-08-30T12:41:48;3.03;;;1.80;;
42666;SDS011;28280;49.646;14.130;2023-08-30T12:52:10;2.05;;;1.58;;
42666;SDS011;28280;49.646;14.130;2023-08-30T13:02:31;1.95;;;1.75;;
42666;SDS011;28280;49.646;14.130;2023-08-30T13:12:53;2.88;;;1.90;;
42666;SDS011;28280;49.646;14.130;2023-08-30T13:23:14;2.10;;;1.83;;
42666;SDS011;28280;49.646;14.130;2023-08-30T13:33:35;1.92;;;1.50;;
42666;SDS011;28280;49.646;14.130;2023-08-30T13:43:57;2.60;;;1.70;;
42666;SDS011;28280;49.646;14.130;2023-08-30T13:54:22;3.40;;;1.65;;
42666;SDS011;28280;49.646;14.130;2023-08-30T14:04:43;2.22;;;1.50;;
42666;SDS011;28280;49.646;14.130;2023-08-30T14:15:05;1.90;;;1.60;;
42666;SDS011;28280;49.646;14.130;2023-08-30T14:25:27;2.58;;;1.52;;
42666;SDS011;28280;49.646;14.130;2023-08-30T14:35:48;1.70;;;1.30;;
42666;SDS011;28280;49.646;14.130;2023-08-30T14:46:09;2.92;;;1.67;;
42666;SDS011;28280;49.646;14.130;2023-08-30T14:56:35;1.73;;;1.45;;
42666;SDS011;28280;49.646;14.130;2023-08-30T15:06:56;2.05;;;1.60;;
42666;SDS011;28280;49.646;14.130;2023-08-30T15:17:17;1.65;;;1.50;;
42666;SDS011;28280;49.646;14.130;2023-08-30T15:27:39;1.65;;;1.35;;
42666;SDS011;28280;49.646;14.130;2023-08-30T15:38:00;1.40;;;1.25;;
42666;SDS011;28280;49.646;14.130;2023-08-30T15:48:21;1.75;;;1.50;;
42666;SDS011;28280;49.646;14.130;2023-08-30T15:58:43;1.83;;;1.40;;
42666;SDS011;28280;49.646;14.130;2023-08-30T16:09:04;3.28;;;1.60;;
42666;SDS011;28280;49.646;14.130;2023-08-30T16:19:25;1.90;;;1.50;;
42666;SDS011;28280;49.646;14.130;2023-08-30T16:29:47;3.72;;;1.50;;
42666;SDS011;28280;49.646;14.130;2023-08-30T16:40:08;2.50;;;1.45;;
42666;SDS011;28280;49.646;14.130;2023-08-30T16:50:30;3.53;;;1.48;;
42666;SDS011;28280;49.646;14.130;2023-08-30T17:00:51;1.60;;;1.30;;
42666;SDS011;28280;49.646;14.130;2023-08-30T17:11:12;2.28;;;1.58;;
42666;SDS011;28280;49.646;14.130;2023-08-30T17:21:34;2.50;;;1.67;;
42666;SDS011;28280;49.646;14.130;2023-08-30T17:31:55;2.00;;;1.60;;
42666;SDS011;28280;49.646;14.130;2023-08-30T17:42:17;2.65;;;1.27;;
42666;SDS011;28280;49.646;14.130;2023-08-30T17:52:38;1.75;;;1.27;;
42666;SDS011;28280;49.646;14.130;2023-08-30T18:03:00;2.55;;;1.42;;
42666;SDS011;28280;49.646;14.130;2023-08-30T18:13:25;2.13;;;1.47;;
42666;SDS011;28280;49.646;14.130;2023-08-30T18:34:38;2.08;;;1.50;;
42666;SDS011;28280;49.646;14.130;2023-08-30T18:45:00;3.15;;;1.27;;
42666;SDS011;28280;49.646;14.130;2023-08-30T18:55:22;2.10;;;1.60;;
42666;SDS011;28280;49.646;14.130;2023-08-30T19:05:44;1.98;;;1.27;;
42666;SDS011;28280;49.646;14.130;2023-08-30T19:16:06;1.92;;;1.50;;
42666;SDS011;28280;49.646;14.130;2023-08-30T19:26:28;1.55;;;1.23;;
42666;SDS011;28280;49.646;14.130;2023-08-30T19:36:51;1.60;;;1.30;;
42666;SDS011;28280;49.646;14.130;2023-08-30T19:47:13;1.80;;;1.40;;
42666;SDS011;28280;49.646;14.130;2023-08-30T19:57:35;1.38;;;1.20;;
42666;SDS011;28280;49.646;14.130;2023-08-30T20:07:59;1.90;;;1.40;;
42666;SDS011;28280;49.646;14.130;2023-08-30T20:18:21;1.52;;;1.30;;
42666;SDS011;28280;49.646;14.130;2023-08-30T20:28:48;3.25;;;1.40;;
42666;SDS011;28280;49.646;14.130;2023-08-30T20:39:11;1.52;;;1.33;;
42666;SDS011;28280;49.646;14.130;2023-08-30T20:49:33;2.13;;;1.38;;
42666;SDS011;28280;49.646;14.130;2023-08-30T20:59:55;1.90;;;1.67;;
42666;SDS011;28280;49.646;14.130;2023-08-30T21:10:16;1.83;;;1.50;;
42666;SDS011;28280;49.646;14.130;2023-08-30T21:20:38;2.03;;;1.45;;
42666;SDS011;28280;49.646;14.130;2023-08-30T21:30:59;2.95;;;1.90;;
42666;SDS011;28280;49.646;14.130;2023-08-30T21:41:20;2.25;;;1.60;;
42666;SDS011;28280;49.646;14.130;2023-08-30T21:51:42;2.00;;;1.52;;
42666;SDS011;28280;49.646;14.130;2023-08-30T22:02:05;2.15;;;1.63;;
42666;SDS011;28280;49.646;14.130;2023-08-30T22:12:26;2.15;;;1.60;;
42666;SDS011;28280;49.646;14.130;2023-08-30T22:22:48;2.90;;;1.75;;
42666;SDS011;28280;49.646;14.130;2023-08-30T22:33:09;1.98;;;1.60;;
42666;SDS011;28280;49.646;14.130;2023-08-30T22:43:31;1.88;;;1.52;;
42666;SDS011;28280;49.646;14.130;2023-08-30T22:53:53;2.08;;;1.63;;
42666;SDS011;28280;49.646;14.130;2023-08-30T23:04:16;3.17;;;1.85;;
42666;SDS011;28280;49.646;14.130;2023-08-30T23:14:37;1.77;;;1.58;;
42666;SDS011;28280;49.646;14.130;2023-08-30T23:24:59;1.95;;;1.75;;
42666;SDS011;28280;49.646;14.130;2023-08-30T23:35:20;2.30;;;1.50;;
42666;SDS011;28280;49.646;14.130;2023-08-30T23:45:42;2.30;;;2.08;;
42666;SDS011;28280;49.646;14.130;2023-08-30T23:56:03;3.20;;;1.80;;
